createdAt,value
2019-03-25T00:00:08.794Z,89.30
2019-03-25T00:02:39.378Z,88.60
2019-03-25T00:05:10.910Z,87.40
2019-03-25T00:07:42.799Z,87.40
2019-03-25T00:10:11.993Z,86.90
2019-03-25T00:12:38.250Z,87.10
2019-03-25T00:15:05.410Z,87.80
2019-03-25T00:17:36.364Z,87.70
2019-03-25T00:20:11.129Z,87.40
2019-03-25T00:22:40.076Z,86.40
2019-03-25T00:25:07.331Z,86.80
2019-03-25T00:27:33.799Z,86.30
2019-03-25T00:30:14.790Z,87.10
2019-03-25T00:32:48.102Z,86.90
2019-03-25T00:35:17.140Z,86.30
2019-03-25T00:37:43.366Z,86.00
2019-03-25T00:40:11.619Z,85.70
2019-03-25T00:42:38.557Z,84.70
2019-03-25T00:45:12.214Z,84.80
2019-03-25T00:47:39.865Z,85.20
2019-03-25T00:50:10.212Z,84.30
2019-03-25T00:52:36.717Z,83.10
2019-03-25T00:55:04.964Z,82.10
2019-03-25T00:57:33.031Z,81.40
2019-03-25T00:59:59.285Z,81.50
2019-03-25T01:02:31.630Z,81.50
2019-03-25T01:04:58.999Z,82.10
2019-03-25T01:07:25.397Z,82.00
2019-03-25T01:09:51.815Z,81.90
2019-03-25T01:12:18.398Z,82.00
2019-03-25T01:14:48.144Z,82.00
2019-03-25T01:17:23.350Z,82.10
2019-03-25T01:19:50.450Z,82.30
2019-03-25T01:22:16.718Z,81.70
2019-03-25T01:24:43.002Z,81.50
2019-03-25T01:27:10.334Z,81.60
2019-03-25T01:29:36.670Z,81.50
2019-03-25T01:32:06.805Z,80.50
2019-03-25T01:34:44.841Z,78.90
2019-03-25T01:37:13.921Z,78.50
2019-03-25T01:39:40.211Z,79.20
2019-03-25T01:42:11.131Z,77.90
2019-03-25T01:44:38.519Z,77.20
2019-03-25T01:47:04.662Z,76.70
2019-03-25T01:49:37.050Z,76.30
2019-03-25T01:52:03.598Z,75.80
2019-03-25T01:54:31.214Z,75.40
2019-03-25T01:56:59.078Z,74.20
2019-03-25T01:59:41.972Z,73.50
2019-03-25T02:05:40.356Z,69.00
2019-03-25T02:08:12.230Z,68.40
2019-03-25T02:10:40.887Z,67.70
2019-03-25T02:13:15.815Z,67.90
2019-03-25T02:15:42.955Z,66.50
2019-03-25T02:18:09.394Z,66.90
2019-03-25T02:20:36.367Z,65.10
2019-03-25T02:23:09.874Z,65.50
2019-03-25T02:25:42.012Z,65.60
2019-03-25T02:28:09.315Z,64.40
2019-03-25T02:30:35.981Z,64.30
2019-03-25T02:33:10.426Z,64.70
2019-03-25T02:35:39.509Z,64.50
2019-03-25T02:38:07.137Z,64.70
2019-03-25T02:40:55.363Z,63.30
2019-03-25T02:43:26.349Z,63.00
2019-03-25T02:46:02.223Z,62.50
2019-03-25T02:51:16.794Z,62.10
2019-03-25T02:53:51.677Z,60.90
2019-03-25T02:56:18.143Z,61.20
2019-03-25T03:01:44.417Z,59.80
2019-03-25T03:04:23.816Z,60.00
2019-03-25T03:09:40.415Z,59.50
2019-03-25T03:12:06.966Z,58.90
2019-03-25T03:14:39.706Z,59.40
2019-03-25T03:17:12.113Z,59.00
2019-03-25T03:19:41.607Z,59.30
2019-03-25T03:22:11.549Z,59.60
2019-03-25T03:24:44.157Z,59.40
2019-03-25T03:27:13.385Z,60.10
2019-03-25T03:29:40.058Z,60.70
2019-03-25T03:32:07.424Z,61.20
2019-03-25T03:34:34.016Z,61.80
2019-03-25T03:37:04.029Z,61.90
2019-03-25T03:39:30.469Z,61.80
2019-03-25T03:42:07.271Z,61.30
2019-03-25T03:44:41.010Z,61.20
2019-03-25T03:47:13.982Z,61.50
2019-03-25T03:49:36.447Z,61.40
2019-03-25T03:52:06.295Z,61.80
2019-03-25T03:54:41.027Z,62.20
2019-03-25T03:57:08.428Z,63.10
2019-03-25T03:59:38.780Z,62.60
2019-03-25T04:02:22.015Z,62.80
2019-03-25T04:04:51.010Z,63.30
2019-03-25T04:07:20.933Z,63.20
2019-03-25T04:09:47.304Z,63.40
2019-03-25T04:12:15.660Z,63.50
2019-03-25T04:14:47.005Z,63.60
2019-03-25T04:17:24.862Z,64.00
2019-03-25T04:19:54.952Z,63.80
2019-03-25T04:22:23.811Z,63.90
2019-03-25T04:27:41.604Z,65.20
2019-03-25T04:30:13.409Z,65.50
2019-03-25T04:32:40.897Z,65.70
2019-03-25T04:35:10.385Z,66.00
2019-03-25T04:37:39.820Z,66.60
2019-03-25T04:40:09.159Z,67.50
2019-03-25T04:42:35.835Z,67.00
2019-03-25T04:45:09.563Z,66.50
2019-03-25T04:47:36.057Z,67.00
2019-03-25T04:50:03.802Z,67.30
2019-03-25T04:52:35.590Z,67.40
2019-03-25T04:55:02.055Z,67.70
2019-03-25T04:57:28.429Z,68.50
2019-03-25T04:59:54.980Z,69.00
2019-03-25T05:02:21.342Z,69.30
2019-03-25T05:04:49.029Z,69.80
2019-03-25T05:07:16.426Z,69.80
2019-03-25T05:09:46.056Z,70.20
2019-03-25T05:12:12.595Z,70.50
2019-03-25T05:14:38.938Z,71.20
2019-03-25T05:17:12.566Z,70.80
2019-03-25T05:19:39.901Z,71.30
2019-03-25T05:22:12.763Z,71.30
2019-03-25T05:24:41.089Z,71.50
2019-03-25T05:27:10.190Z,71.50
2019-03-25T05:29:36.391Z,71.50
2019-03-25T05:32:03.105Z,71.60
2019-03-25T05:34:29.336Z,71.70
2019-03-25T05:36:56.038Z,72.10
2019-03-25T05:39:22.265Z,71.90
2019-03-25T05:41:48.496Z,72.20
2019-03-25T05:44:14.731Z,72.60
2019-03-25T05:46:41.113Z,72.80
2019-03-25T05:49:07.385Z,73.10
2019-03-25T05:51:40.659Z,73.60
2019-03-25T05:54:28.709Z,74.20
2019-03-25T05:57:02.495Z,74.50
2019-03-25T05:59:28.101Z,74.90
2019-03-25T06:01:57.153Z,74.60
2019-03-25T06:04:23.440Z,74.90
2019-03-25T06:06:52.177Z,75.70
2019-03-25T06:09:18.389Z,75.90
2019-03-25T06:11:52.239Z,76.10
2019-03-25T06:14:40.680Z,76.60
2019-03-25T06:17:12.440Z,77.20
2019-03-25T06:19:44.140Z,77.80
2019-03-25T06:22:18.961Z,77.90
2019-03-25T06:24:59.499Z,78.20
2019-03-25T06:28:05.126Z,78.80
2019-03-25T06:30:36.742Z,79.30
2019-03-25T06:33:21.651Z,79.50
2019-03-25T06:35:55.065Z,80.20
2019-03-25T06:38:30.956Z,79.60
2019-03-25T06:41:15.042Z,80.50
2019-03-25T06:43:53.483Z,80.60
2019-03-25T06:49:19.798Z,80.60
2019-03-25T06:51:52.010Z,80.60
2019-03-25T06:54:22.584Z,80.40
2019-03-25T06:57:05.437Z,80.20
2019-03-25T07:02:30.850Z,79.60
2019-03-25T07:04:57.314Z,79.20
2019-03-25T07:07:38.996Z,79.70
2019-03-25T07:10:05.817Z,79.30
2019-03-25T07:12:36.698Z,76.70
2019-03-25T07:15:06.801Z,76.60
2019-03-25T07:17:36.065Z,75.60
2019-03-25T07:20:07.316Z,74.80
2019-03-25T07:22:41.723Z,74.90
2019-03-25T07:25:13.338Z,73.90
2019-03-25T07:27:46.682Z,72.50
2019-03-25T07:30:37.108Z,71.90
2019-03-25T07:35:54.258Z,72.30
2019-03-25T07:38:20.636Z,70.60
2019-03-25T07:40:52.895Z,70.30
2019-03-25T07:43:19.158Z,70.90
2019-03-25T07:45:47.862Z,70.70
2019-03-25T07:48:14.340Z,71.50
2019-03-25T07:50:42.891Z,70.20
2019-03-25T07:53:28.452Z,68.90
2019-03-25T07:55:49.147Z,70.40
2019-03-25T07:58:28.904Z,68.70
2019-03-25T08:00:56.952Z,69.30
2019-03-25T08:03:23.354Z,66.90
2019-03-25T08:05:49.938Z,67.00
2019-03-25T08:08:18.621Z,69.40
2019-03-25T08:10:46.918Z,69.70
2019-03-25T08:13:14.499Z,69.60
2019-03-25T08:15:43.840Z,68.90
2019-03-25T08:18:10.417Z,67.00
2019-03-25T08:20:49.425Z,69.00
2019-03-25T08:23:25.173Z,68.10
2019-03-25T08:26:04.081Z,66.70
2019-03-25T08:28:41.544Z,66.70
2019-03-25T08:31:14.305Z,66.90
2019-03-25T08:33:43.744Z,66.30
2019-03-25T08:36:09.595Z,67.00
2019-03-25T08:38:42.555Z,66.10
2019-03-25T08:41:09.107Z,64.50
2019-03-25T08:43:36.206Z,63.80
2019-03-25T08:46:02.782Z,64.60
2019-03-25T08:48:31.758Z,64.50
2019-03-25T08:51:03.418Z,62.40
2019-03-25T08:53:32.304Z,62.60
2019-03-25T08:56:03.306Z,61.70
2019-03-25T08:58:37.993Z,61.80
2019-03-25T09:01:09.672Z,61.30
2019-03-25T09:03:46.494Z,62.40
2019-03-25T09:06:17.317Z,60.70
2019-03-25T09:08:55.961Z,60.20
2019-03-25T09:11:24.936Z,61.30
2019-03-25T09:13:51.581Z,61.10
2019-03-25T09:16:21.446Z,60.80
2019-03-25T09:19:09.485Z,59.70
2019-03-25T09:21:41.209Z,59.20
2019-03-25T09:24:25.395Z,58.70
2019-03-25T09:26:45.926Z,60.00
2019-03-25T09:29:26.156Z,60.00
2019-03-25T09:31:56.116Z,59.70
2019-03-25T09:34:39.346Z,59.20
2019-03-25T09:37:09.573Z,58.40
2019-03-25T09:39:47.865Z,58.40
2019-03-25T09:45:02.513Z,58.50
2019-03-25T09:47:42.966Z,58.70
2019-03-25T09:50:12.516Z,59.10
2019-03-25T09:52:40.737Z,58.60
2019-03-25T09:55:13.505Z,58.40
2019-03-25T09:57:40.347Z,59.00
2019-03-25T10:03:05.823Z,59.20
2019-03-25T10:05:35.942Z,58.40
2019-03-25T10:08:02.519Z,58.80
2019-03-25T10:10:28.993Z,58.90
2019-03-25T10:12:56.813Z,59.00
2019-03-25T10:15:23.332Z,60.10
2019-03-25T10:17:56.342Z,59.10
2019-03-25T10:20:21.881Z,58.80
2019-03-25T10:22:50.290Z,58.90
2019-03-25T10:25:16.857Z,59.50
2019-03-25T10:27:50.278Z,61.30
2019-03-25T10:30:22.545Z,63.60
2019-03-25T10:32:49.519Z,65.20
2019-03-25T10:35:24.213Z,62.00
2019-03-25T10:37:45.177Z,62.20
2019-03-25T10:40:14.191Z,59.00
2019-03-25T10:42:40.481Z,58.10
2019-03-25T10:45:08.219Z,58.70
2019-03-25T10:47:42.545Z,57.50
2019-03-25T10:50:12.026Z,56.90
2019-03-25T10:52:40.357Z,55.50
2019-03-25T10:55:13.380Z,55.40
2019-03-25T10:57:41.798Z,54.50
2019-03-25T11:00:11.842Z,53.30
2019-03-25T11:02:40.169Z,53.00
2019-03-25T11:05:07.291Z,52.70
2019-03-25T11:07:33.805Z,53.40
2019-03-25T11:11:46.107Z,51.50
2019-03-25T11:12:51.213Z,49.90
2019-03-25T11:15:20.751Z,50.00
2019-03-25T11:17:51.136Z,49.90
2019-03-25T11:20:17.634Z,49.40
2019-03-25T11:22:53.766Z,49.40
2019-03-25T11:25:33.474Z,48.80
2019-03-25T11:27:54.768Z,48.90
2019-03-25T11:30:45.701Z,48.60
2019-03-25T11:33:23.821Z,49.00
2019-03-25T11:35:51.820Z,50.80
2019-03-25T11:38:25.311Z,48.60
2019-03-25T11:40:53.181Z,47.10
2019-03-25T11:43:19.590Z,45.00
2019-03-25T11:45:50.248Z,45.60
2019-03-25T11:48:18.951Z,47.90
2019-03-25T11:50:48.827Z,48.90
2019-03-25T11:53:15.669Z,51.70
2019-03-25T11:55:42.253Z,53.30
2019-03-25T11:58:08.767Z,52.30
2019-03-25T12:00:48.459Z,51.40
2019-03-25T12:03:19.338Z,52.70
2019-03-25T12:05:53.448Z,51.10
2019-03-25T12:08:20.128Z,50.50
2019-03-25T12:10:50.343Z,49.80
2019-03-25T12:13:17.002Z,50.30
2019-03-25T12:15:43.925Z,49.90
2019-03-25T12:18:12.487Z,48.70
2019-03-25T12:20:38.814Z,50.20
2019-03-25T12:23:05.234Z,48.30
2019-03-25T12:25:31.543Z,47.40
2019-03-25T12:27:57.938Z,46.90
2019-03-25T12:30:31.088Z,49.10
2019-03-25T12:33:04.209Z,41.50
2019-03-25T12:35:43.779Z,40.50
2019-03-25T12:38:05.950Z,41.60
2019-03-25T12:40:40.598Z,42.80
2019-03-25T12:43:11.954Z,40.80
2019-03-25T12:45:39.282Z,43.90
2019-03-25T12:48:05.686Z,40.60
2019-03-25T12:50:35.461Z,40.00
2019-03-25T12:53:01.740Z,39.70
2019-03-25T12:55:36.446Z,40.40
2019-03-25T12:58:07.445Z,41.80
2019-03-25T13:00:42.070Z,38.30
2019-03-25T13:05:59.208Z,39.20
2019-03-25T13:08:39.003Z,43.00
2019-03-25T13:11:05.446Z,47.70
2019-03-25T13:13:33.386Z,52.60
2019-03-25T13:15:59.824Z,55.70
2019-03-25T13:18:26.251Z,58.20
2019-03-25T13:20:55.040Z,59.40
2019-03-25T13:23:21.515Z,59.80
2019-03-25T13:25:47.862Z,60.40
2019-03-25T13:28:15.422Z,59.20
2019-03-25T13:30:42.472Z,58.00
2019-03-25T13:33:15.628Z,56.40
2019-03-25T13:35:41.869Z,53.60
2019-03-25T13:38:08.127Z,49.40
2019-03-25T13:40:37.213Z,49.50
2019-03-25T13:43:03.558Z,44.90
2019-03-25T13:45:29.966Z,45.20
2019-03-25T13:48:01.062Z,41.10
2019-03-25T13:50:36.195Z,39.70
2019-03-25T13:53:04.656Z,40.00
2019-03-25T13:55:33.976Z,38.80
2019-03-25T13:58:03.335Z,38.10
2019-03-25T14:00:35.378Z,36.60
2019-03-25T14:03:01.929Z,36.30
2019-03-25T14:05:28.153Z,38.20
2019-03-25T14:07:54.883Z,38.30
2019-03-25T14:10:24.027Z,39.20
2019-03-25T14:12:51.981Z,39.60
2019-03-25T14:18:08.745Z,39.40
2019-03-25T14:20:37.658Z,38.10
2019-03-25T14:23:10.865Z,36.80
2019-03-25T14:25:40.965Z,36.60
2019-03-25T14:31:02.099Z,37.50
2019-03-25T14:33:40.837Z,40.10
2019-03-25T14:36:10.397Z,49.10
2019-03-25T14:38:36.674Z,69.30
2019-03-25T14:41:14.122Z,82.20
2019-03-25T14:43:40.488Z,87.50
2019-03-25T14:46:06.987Z,88.50
2019-03-25T14:48:37.560Z,89.30
2019-03-25T14:51:05.572Z,90.20
2019-03-25T14:53:45.095Z,90.00
2019-03-25T14:56:06.600Z,90.20
2019-03-25T14:58:33.160Z,90.30
2019-03-25T15:01:01.779Z,90.60
2019-03-25T15:03:30.102Z,90.40
2019-03-25T15:05:56.893Z,90.20
2019-03-25T15:08:23.687Z,90.80
2019-03-25T15:10:54.625Z,90.50
2019-03-25T15:13:20.947Z,89.20
2019-03-25T15:16:04.596Z,90.30
2019-03-25T15:18:33.024Z,90.40
2019-03-25T15:20:59.517Z,90.10
2019-03-25T15:23:25.875Z,90.10
2019-03-25T15:25:52.313Z,90.10
2019-03-25T15:28:22.193Z,90.00
2019-03-25T15:30:49.020Z,85.10
2019-03-25T15:33:19.204Z,85.40
2019-03-25T15:35:50.839Z,85.40
2019-03-25T15:38:17.545Z,87.50
2019-03-25T15:43:42.608Z,88.00
2019-03-25T15:46:18.425Z,86.00
2019-03-25T15:48:47.532Z,86.90
2019-03-25T15:51:19.927Z,85.20
2019-03-25T15:59:47.542Z,85.10
2019-03-25T16:02:13.949Z,85.20
2019-03-25T16:04:42.987Z,84.60
2019-03-25T16:10:04.368Z,84.70
2019-03-25T16:12:40.518Z,84.40
2019-03-25T16:15:11.991Z,85.10
2019-03-25T16:17:38.171Z,78.60
2019-03-25T16:20:10.563Z,78.10
2019-03-25T16:22:40.366Z,77.90
2019-03-25T16:28:33.833Z,76.50
2019-03-25T16:31:06.671Z,75.10
2019-03-25T16:33:32.934Z,73.50
2019-03-25T16:36:00.561Z,73.60
2019-03-25T16:38:43.581Z,73.40
2019-03-25T16:41:16.020Z,72.60
2019-03-25T16:43:42.356Z,73.90
2019-03-25T16:46:23.882Z,73.00
2019-03-25T16:48:55.682Z,73.70
2019-03-25T16:51:27.254Z,73.30
2019-03-25T16:54:00.679Z,73.90
2019-03-25T16:59:21.215Z,72.80
2019-03-25T17:01:51.132Z,71.30
2019-03-25T17:04:21.416Z,70.60
2019-03-25T17:06:50.477Z,70.20
2019-03-25T17:09:24.207Z,69.00
2019-03-25T17:11:53.451Z,68.10
2019-03-25T17:14:35.163Z,68.60
2019-03-25T17:17:11.338Z,68.00
2019-03-25T17:19:51.408Z,67.60
2019-03-25T17:22:27.607Z,67.30
2019-03-25T17:25:06.382Z,67.40
2019-03-25T17:27:32.769Z,67.80
2019-03-25T17:30:02.923Z,67.60
2019-03-25T17:32:32.980Z,67.50
2019-03-25T17:34:59.793Z,67.10
2019-03-25T17:37:41.580Z,67.80
2019-03-25T17:40:13.304Z,67.10
2019-03-25T17:42:41.560Z,68.00
2019-03-25T17:45:13.453Z,66.80
2019-03-25T17:47:43.489Z,67.10
2019-03-25T17:50:11.049Z,68.10
2019-03-25T17:52:40.344Z,67.70
2019-03-25T17:55:12.385Z,67.20
2019-03-25T17:57:41.102Z,67.10
2019-03-25T18:00:09.933Z,67.30
2019-03-25T18:02:36.291Z,67.00
2019-03-25T18:05:06.376Z,67.90
2019-03-25T18:07:34.569Z,68.30
2019-03-25T18:10:01.407Z,68.90
2019-03-25T18:12:38.444Z,68.80
2019-03-25T18:15:08.431Z,68.40
2019-03-25T18:17:35.621Z,68.20
2019-03-25T18:20:04.872Z,67.80
2019-03-25T18:22:39.641Z,67.50
2019-03-25T18:25:06.103Z,67.80
2019-03-25T18:27:32.379Z,68.10
2019-03-25T18:30:08.334Z,68.50
2019-03-25T18:32:34.657Z,69.40
2019-03-25T18:35:03.599Z,69.40
2019-03-25T18:37:29.635Z,69.30
2019-03-25T18:39:59.214Z,69.00
2019-03-25T18:42:30.627Z,69.10
2019-03-25T18:44:56.992Z,69.30
2019-03-25T18:47:23.353Z,69.10
2019-03-25T18:52:47.979Z,70.40
2019-03-25T18:55:18.555Z,71.10
2019-03-25T18:57:44.890Z,72.40
2019-03-25T19:00:20.457Z,74.80
2019-03-25T19:02:52.761Z,75.90
2019-03-25T19:05:18.990Z,76.20
2019-03-25T19:07:46.289Z,77.40
2019-03-25T19:10:16.443Z,77.30
2019-03-25T19:12:45.398Z,78.80
2019-03-25T19:15:20.707Z,77.90
2019-03-25T19:17:47.009Z,78.50
2019-03-25T19:20:13.231Z,78.40
2019-03-25T19:22:39.483Z,78.90
2019-03-25T19:25:05.857Z,78.60
2019-03-25T19:27:37.548Z,77.80
2019-03-25T19:30:08.701Z,77.80
2019-03-25T19:32:39.618Z,77.80
2019-03-25T19:35:06.910Z,78.50
2019-03-25T19:37:36.032Z,78.70
2019-03-25T19:40:08.424Z,79.00
2019-03-25T19:42:38.173Z,79.40
2019-03-25T19:45:08.898Z,79.00
2019-03-25T19:47:42.827Z,79.90
2019-03-25T19:50:15.421Z,80.10
2019-03-25T19:52:42.804Z,80.00
2019-03-25T19:55:09.598Z,80.50
2019-03-25T19:57:41.497Z,81.90
2019-03-25T20:00:16.785Z,82.80
2019-03-25T20:02:54.724Z,85.40
2019-03-25T20:05:21.281Z,87.60
2019-03-25T20:07:50.379Z,89.60
2019-03-25T20:10:30.340Z,90.10
2019-03-25T20:13:00.745Z,90.60
2019-03-25T20:15:32.628Z,91.00
2019-03-25T20:18:11.317Z,91.20
2019-03-25T20:20:41.471Z,91.50
2019-03-25T20:23:17.417Z,91.50
2019-03-25T20:25:53.935Z,91.60
2019-03-25T20:28:23.314Z,91.90
2019-03-25T20:30:57.997Z,92.00
2019-03-25T20:33:40.510Z,92.10
2019-03-25T20:36:06.753Z,92.30
2019-03-25T20:38:40.426Z,92.40
2019-03-25T20:41:21.495Z,92.60
2019-03-25T20:46:38.744Z,93.30
2019-03-25T20:49:08.815Z,93.40
2019-03-25T20:51:35.083Z,93.50
2019-03-25T20:54:09.551Z,93.80
2019-03-25T20:56:39.169Z,94.10
2019-03-25T20:59:06.357Z,94.30
2019-03-25T21:01:36.664Z,94.40
2019-03-25T21:04:03.054Z,94.60
2019-03-25T21:06:29.175Z,94.80
2019-03-25T21:09:00.462Z,95.00
2019-03-25T21:11:33.493Z,95.40
2019-03-25T21:13:59.753Z,95.40
2019-03-25T21:16:30.940Z,95.60
2019-03-25T21:19:06.281Z,95.60
2019-03-25T21:21:37.206Z,95.70
2019-03-25T21:24:14.943Z,95.70
2019-03-25T21:26:41.308Z,95.50
2019-03-25T21:29:20.318Z,95.40
2019-03-25T21:31:57.513Z,95.40
2019-03-25T21:34:24.311Z,95.40
2019-03-25T21:37:18.102Z,95.40
2019-03-25T21:39:54.110Z,95.50
2019-03-25T21:42:20.938Z,95.30
2019-03-25T21:44:49.219Z,95.30
2019-03-25T21:47:15.579Z,95.30
2019-03-25T21:49:49.849Z,95.20
2019-03-25T21:52:19.543Z,95.30
2019-03-25T21:54:48.757Z,95.10
2019-03-25T21:57:24.277Z,95.20
2019-03-25T21:59:58.662Z,95.20
2019-03-25T22:05:34.827Z,95.40
2019-03-25T22:08:01.806Z,95.40
2019-03-25T22:10:44.449Z,95.40
2019-03-25T22:13:16.416Z,95.50
2019-03-25T22:18:40.808Z,95.60
2019-03-25T22:21:11.085Z,95.70
2019-03-25T22:23:56.778Z,95.80
2019-03-25T22:26:23.132Z,95.80
2019-03-25T22:28:57.225Z,95.90
2019-03-25T22:31:23.484Z,95.90
2019-03-25T22:33:56.957Z,95.90
2019-03-25T22:36:23.563Z,95.80
2019-03-25T22:38:56.691Z,95.80
2019-03-25T22:41:36.961Z,95.90
2019-03-25T22:44:53.136Z,95.70
2019-03-25T22:49:13.690Z,95.90
2019-03-25T22:51:55.671Z,95.70
2019-03-25T22:54:27.229Z,95.80
2019-03-25T22:56:58.405Z,95.70
2019-03-25T22:59:41.089Z,95.70
2019-03-25T23:05:00.399Z,95.90
2019-03-25T23:10:17.871Z,95.60
2019-03-25T23:12:44.228Z,95.70
2019-03-25T23:18:13.115Z,95.80
2019-03-25T23:20:40.953Z,95.70
2019-03-25T23:23:18.057Z,95.80
2019-03-25T23:25:42.724Z,95.90
2019-03-25T23:28:18.104Z,95.90
2019-03-25T23:30:40.575Z,95.70
2019-03-25T23:33:22.943Z,96.00
2019-03-25T23:35:52.440Z,96.10
2019-03-25T23:41:12.930Z,96.20
2019-03-25T23:43:40.934Z,96.10
2019-03-25T23:46:14.423Z,96.10
2019-03-25T23:48:44.992Z,96.20
2019-03-25T23:51:17.974Z,96.10
2019-03-25T23:53:43.992Z,96.10
2019-03-25T23:56:18.558Z,96.00
2019-03-25T23:58:46.303Z,96.00
